If you wish to contribute or participate in the discussions about articles you are invited to join SKYbrary as a registered user

 Actions

Lamerd Airport

From SKYbrary Wiki

OISR
Airport
ICAO: OISR – IATA: LFM
Summary
Name Lamerd Airport
Region Middle East
Territory Iran IR.gif
Location Lamerd, Fars Province
Serving Lamerd
Elevation 407.518 m
1,337 ft407.518 m
Coordinates 27° 22' 21.57" N, 53° 11' 23.89" E
Runways
Designator Length Width Surface ROPS
11/29 3054 m10,019.685 ft
45 m147.638 ft
ASP /


METAR
Observation OISR 111000Z 00000KT CAVOK 32/11 Q1013 A2993
Station Forūdgāh-e Lāmerd
Date/Time 11 April 2019 10:00:00
Wind direction
Wind speed 00 kts
Lowest cloud amount clouds and visibility OK
Temperature 32°C
Dew point 11°C
Humidity 27%
QNH 1013 hPa
Weather condition n/a

Airport 4km2.16 nm
4,000 m
13,123.36 ft
north of the city of Lamerd, Iran.

Climatology

Warm Desert climate (Köppen climate classification BWh).

Maps

Terrain

Loading map...

Airport Layout

Loading map...


Accidents & Serious Incidents at or in vicinity of OISR

None on SKYbrary